Limon International Airport
MRLM : now visible

Airfield :











YOU CAN JOIN US ON...

 
LOGIN :

Register | Disclaimer

   EN    FR    IT 

 









Legend :    VFR   Marginal VFR   IFR   Intensive IFR   Very Intensive IFR
Visi :
Ceiling :
>= 8 km
>= 3000ft
5 to 8 km
1000 to 3000 ft
1500m to 5 km
500 to 1000 ft
800 to 1500m
200 to 500 ft
< 800m
< 200 ft
Symbols :   Thunderstorms  Fog  Heavy snow  Heavy precipitations  Wind > 20 kt






- Airport Elevation : 7 ft
- IATA code : LIO


MRLM - Limon International

CURRENT METAR :
  • 281800Z 10012KT 9999 FEW030 30/22 A2988

EXPIRED METARs :
  • 281700Z 10011KT CAVOK 30/22 A2990
  • 281600Z 10007KT CAVOK 30/20 A2991

TAF MRLM
Valid from the 28 at 18:00 until the 29 at 18:00 UTC


281709Z 2818/2918 07005KT CAVOK TX31/2920Z TN23/2911Z
BECMG 2901/2903 25005KT
BECMG 2914/2916 09007KT



MET'MAP, your aeronautical weather chart ! - Copyright ORBIFLY December 2007 - Disclaimer

ORBIFLY MET'MAP TEAM :

Programming & Development : Alexandra Zaïnal
Concept & original design : Baudouin d'Aumeries
Assistance for programming : Marc-Olivier Méhu
Technical & hardware support : Manuel Goepfert

Contact : metmap@orbifly.com




SOURCES & CREDITS :

   NOAA       Earth
Advisory